sensor_id;sensor_type;location;lat;lon;timestamp;temperature;humidity
72604;DHT22;60645;56.968;24.196;2023-03-17T00:01:51;1.70;94.90
72604;DHT22;60645;56.968;24.196;2023-03-17T00:04:24;1.90;95.40
72604;DHT22;60645;56.968;24.196;2023-03-17T00:06:52;1.70;95.80
72604;DHT22;60645;56.968;24.196;2023-03-17T00:09:20;1.60;95.70
72604;DHT22;60645;56.968;24.196;2023-03-17T00:11:48;1.70;95.50
72604;DHT22;60645;56.968;24.196;2023-03-17T00:14:16;1.80;95.70
72604;DHT22;60645;56.968;24.196;2023-03-17T00:16:45;1.60;95.60
72604;DHT22;60645;56.968;24.196;2023-03-17T00:19:28;1.80;95.60
72604;DHT22;60645;56.968;24.196;2023-03-17T00:21:58;1.90;95.80
72604;DHT22;60645;56.968;24.196;2023-03-17T00:24:26;1.60;95.80
72604;DHT22;60645;56.968;24.196;2023-03-17T00:26:53;1.60;95.90
72604;DHT22;60645;56.968;24.196;2023-03-17T00:29:20;1.70;96.10
72604;DHT22;60645;56.968;24.196;2023-03-17T00:31:47;1.70;95.90
72604;DHT22;60645;56.968;24.196;2023-03-17T00:34:17;1.60;95.50
72604;DHT22;60645;56.968;24.196;2023-03-17T00:36:48;1.60;95.90
72604;DHT22;60645;56.968;24.196;2023-03-17T00:39:16;1.70;95.90
72604;DHT22;60645;56.968;24.196;2023-03-17T00:41:44;1.80;95.40
72604;DHT22;60645;56.968;24.196;2023-03-17T00:44:11;1.60;95.40
72604;DHT22;60645;56.968;24.196;2023-03-17T00:46:38;1.70;95.70
72604;DHT22;60645;56.968;24.196;2023-03-17T00:49:18;1.50;95.50
72604;DHT22;60645;56.968;24.196;2023-03-17T00:51:48;1.40;96.20
72604;DHT22;60645;56.968;24.196;2023-03-17T00:54:16;1.70;96.20
72604;DHT22;60645;56.968;24.196;2023-03-17T00:56:44;1.60;96.50
72604;DHT22;60645;56.968;24.196;2023-03-17T00:59:36;1.70;96.00
72604;DHT22;60645;56.968;24.196;2023-03-17T01:02:04;1.70;96.20
72604;DHT22;60645;56.968;24.196;2023-03-17T01:04:31;1.70;95.60
72604;DHT22;60645;56.968;24.196;2023-03-17T01:06:59;1.80;95.80
72604;DHT22;60645;56.968;24.196;2023-03-17T01:09:27;1.60;95.60
72604;DHT22;60645;56.968;24.196;2023-03-17T01:11:54;1.70;95.90
72604;DHT22;60645;56.968;24.196;2023-03-17T01:14:21;1.60;95.70
72604;DHT22;60645;56.968;24.196;2023-03-17T01:16:49;1.60;95.80
72604;DHT22;60645;56.968;24.196;2023-03-17T01:19:18;1.60;95.80
72604;DHT22;60645;56.968;24.196;2023-03-17T01:21:45;1.70;96.00
72604;DHT22;60645;56.968;24.196;2023-03-17T01:24:13;1.70;96.20
72604;DHT22;60645;56.968;24.196;2023-03-17T01:26:40;1.80;96.40
72604;DHT22;60645;56.968;24.196;2023-03-17T01:29:07;1.70;96.00
72604;DHT22;60645;56.968;24.196;2023-03-17T01:31:34;1.80;96.40
72604;DHT22;60645;56.968;24.196;2023-03-17T01:34:02;1.70;96.60
72604;DHT22;60645;56.968;24.196;2023-03-17T01:36:29;1.80;96.10
72604;DHT22;60645;56.968;24.196;2023-03-17T01:38:56;1.70;96.00
72604;DHT22;60645;56.968;24.196;2023-03-17T01:41:24;1.70;96.10
72604;DHT22;60645;56.968;24.196;2023-03-17T01:43:51;1.80;95.90
72604;DHT22;60645;56.968;24.196;2023-03-17T01:46:30;1.50;95.90
72604;DHT22;60645;56.968;24.196;2023-03-17T01:49:26;1.50;96.10
72604;DHT22;60645;56.968;24.196;2023-03-17T01:57:19;1.60;95.80
72604;DHT22;60645;56.968;24.196;2023-03-17T01:59:54;1.60;96.30
72604;DHT22;60645;56.968;24.196;2023-03-17T02:02:27;1.70;96.00
72604;DHT22;60645;56.968;24.196;2023-03-17T02:04:57;1.70;95.70
72604;DHT22;60645;56.968;24.196;2023-03-17T02:07:25;1.80;95.80
72604;DHT22;60645;56.968;24.196;2023-03-17T02:09:53;1.80;96.10
72604;DHT22;60645;56.968;24.196;2023-03-17T02:12:24;1.80;96.00
72604;DHT22;60645;56.968;24.196;2023-03-17T02:14:54;1.60;95.80
72604;DHT22;60645;56.968;24.196;2023-03-17T02:17:22;1.60;96.10
72604;DHT22;60645;56.968;24.196;2023-03-17T02:19:50;1.60;96.40
72604;DHT22;60645;56.968;24.196;2023-03-17T02:22:18;1.70;96.60
72604;DHT22;60645;56.968;24.196;2023-03-17T02:24:52;1.50;96.60
72604;DHT22;60645;56.968;24.196;2023-03-17T02:27:26;1.70;96.70
72604;DHT22;60645;56.968;24.196;2023-03-17T02:29:56;1.50;97.00
72604;DHT22;60645;56.968;24.196;2023-03-17T02:32:23;1.60;96.70
72604;DHT22;60645;56.968;24.196;2023-03-17T02:34:51;1.40;96.60
72604;DHT22;60645;56.968;24.196;2023-03-17T02:37:18;1.40;96.90
72604;DHT22;60645;56.968;24.196;2023-03-17T02:39:45;1.60;97.30
72604;DHT22;60645;56.968;24.196;2023-03-17T02:42:12;1.50;96.70
72604;DHT22;60645;56.968;24.196;2023-03-17T02:44:40;1.40;96.40
72604;DHT22;60645;56.968;24.196;2023-03-17T02:47:07;1.50;96.40
72604;DHT22;60645;56.968;24.196;2023-03-17T02:49:35;1.40;96.70
72604;DHT22;60645;56.968;24.196;2023-03-17T02:52:04;1.60;97.00
72604;DHT22;60645;56.968;24.196;2023-03-17T05:16:21;1.40;93.90
72604;DHT22;60645;56.968;24.196;2023-03-17T05:18:50;1.20;93.30
72604;DHT22;60645;56.968;24.196;2023-03-17T05:21:17;1.20;92.70
72604;DHT22;60645;56.968;24.196;2023-03-17T05:23:44;1.40;92.70
72604;DHT22;60645;56.968;24.196;2023-03-17T05:26:11;1.30;92.40
72604;DHT22;60645;56.968;24.196;2023-03-17T05:28:38;1.30;92.20
72604;DHT22;60645;56.968;24.196;2023-03-17T05:31:05;1.30;92.50
72604;DHT22;60645;56.968;24.196;2023-03-17T05:33:36;1.20;92.50
72604;DHT22;60645;56.968;24.196;2023-03-17T05:36:03;1.10;93.20
72604;DHT22;60645;56.968;24.196;2023-03-17T05:38:30;1.10;93.30
72604;DHT22;60645;56.968;24.196;2023-03-17T05:40:57;1.10;92.60
72604;DHT22;60645;56.968;24.196;2023-03-17T05:43:24;1.20;92.50
72604;DHT22;60645;56.968;24.196;2023-03-17T05:45:51;1.00;92.20
72604;DHT22;60645;56.968;24.196;2023-03-17T05:48:18;1.20;91.40
72604;DHT22;60645;56.968;24.196;2023-03-17T05:50:45;1.40;91.50
72604;DHT22;60645;56.968;24.196;2023-03-17T05:53:13;1.30;92.00
72604;DHT22;60645;56.968;24.196;2023-03-17T05:55:40;1.30;91.80
72604;DHT22;60645;56.968;24.196;2023-03-17T05:58:07;1.30;91.50
72604;DHT22;60645;56.968;24.196;2023-03-17T06:00:35;1.20;92.10
72604;DHT22;60645;56.968;24.196;2023-03-17T06:03:04;1.40;91.50
72604;DHT22;60645;56.968;24.196;2023-03-17T06:05:31;1.40;91.70
72604;DHT22;60645;56.968;24.196;2023-03-17T06:07:58;1.50;91.60
72604;DHT22;60645;56.968;24.196;2023-03-17T06:10:24;1.40;92.10
72604;DHT22;60645;56.968;24.196;2023-03-17T06:12:52;1.50;91.50
72604;DHT22;60645;56.968;24.196;2023-03-17T06:15:19;1.60;91.30
72604;DHT22;60645;56.968;24.196;2023-03-17T06:17:46;1.70;91.60
72604;DHT22;60645;56.968;24.196;2023-03-17T06:20:14;1.70;90.70
72604;DHT22;60645;56.968;24.196;2023-03-17T06:22:41;1.70;90.50
72604;DHT22;60645;56.968;24.196;2023-03-17T06:25:28;1.60;91.00
72604;DHT22;60645;56.968;24.196;2023-03-17T06:27:56;1.70;90.80
72604;DHT22;60645;56.968;24.196;2023-03-17T06:30:23;1.80;90.40
72604;DHT22;60645;56.968;24.196;2023-03-17T06:32:50;1.80;90.40
72604;DHT22;60645;56.968;24.196;2023-03-17T06:35:17;1.70;89.90
72604;DHT22;60645;56.968;24.196;2023-03-17T06:37:44;1.90;89.70
72604;DHT22;60645;56.968;24.196;2023-03-17T06:40:12;1.90;90.30
72604;DHT22;60645;56.968;24.196;2023-03-17T06:42:39;1.80;89.70
72604;DHT22;60645;56.968;24.196;2023-03-17T06:45:06;1.60;90.00
72604;DHT22;60645;56.968;24.196;2023-03-17T06:50:02;1.80;90.10
72604;DHT22;60645;56.968;24.196;2023-03-17T06:52:29;1.70;90.30
72604;DHT22;60645;56.968;24.196;2023-03-17T06:54:56;1.90;90.20
72604;DHT22;60645;56.968;24.196;2023-03-17T06:57:23;1.90;90.50
72604;DHT22;60645;56.968;24.196;2023-03-17T06:59:50;2.00;90.20
72604;DHT22;60645;56.968;24.196;2023-03-17T07:02:17;2.00;89.60
72604;DHT22;60645;56.968;24.196;2023-03-17T07:04:44;1.90;89.80
72604;DHT22;60645;56.968;24.196;2023-03-17T07:07:11;2.00;89.80
72604;DHT22;60645;56.968;24.196;2023-03-17T07:09:38;2.00;89.60
72604;DHT22;60645;56.968;24.196;2023-03-17T07:12:05;2.30;88.40
72604;DHT22;60645;56.968;24.196;2023-03-17T07:14:33;2.50;88.10
72604;DHT22;60645;56.968;24.196;2023-03-17T07:17:01;2.50;87.50
72604;DHT22;60645;56.968;24.196;2023-03-17T07:19:29;2.70;86.40
72604;DHT22;60645;56.968;24.196;2023-03-17T07:21:57;2.60;86.30
72604;DHT22;60645;56.968;24.196;2023-03-17T07:24:24;2.20;87.00
72604;DHT22;60645;56.968;24.196;2023-03-17T07:26:52;2.30;87.70
72604;DHT22;60645;56.968;24.196;2023-03-17T07:29:19;2.30;88.30
72604;DHT22;60645;56.968;24.196;2023-03-17T07:31:48;2.40;88.60
72604;DHT22;60645;56.968;24.196;2023-03-17T07:34:16;2.60;88.70
72604;DHT22;60645;56.968;24.196;2023-03-17T07:36:43;2.40;88.60
72604;DHT22;60645;56.968;24.196;2023-03-17T07:39:11;2.40;88.50
72604;DHT22;60645;56.968;24.196;2023-03-17T07:41:38;2.40;88.40
72604;DHT22;60645;56.968;24.196;2023-03-17T07:44:06;2.50;88.30
72604;DHT22;60645;56.968;24.196;2023-03-17T07:46:35;2.60;87.60
72604;DHT22;60645;56.968;24.196;2023-03-17T07:49:03;2.50;88.30
72604;DHT22;60645;56.968;24.196;2023-03-17T07:51:30;2.50;88.40
72604;DHT22;60645;56.968;24.196;2023-03-17T07:53:57;2.50;88.50
72604;DHT22;60645;56.968;24.196;2023-03-17T07:56:31;2.40;88.00
72604;DHT22;60645;56.968;24.196;2023-03-17T07:58:58;2.30;88.90
72604;DHT22;60645;56.968;24.196;2023-03-17T08:01:26;2.10;89.00
72604;DHT22;60645;56.968;24.196;2023-03-17T08:03:54;2.20;89.00
72604;DHT22;60645;56.968;24.196;2023-03-17T08:06:23;2.20;88.80
72604;DHT22;60645;56.968;24.196;2023-03-17T08:08:52;2.20;88.20
72604;DHT22;60645;56.968;24.196;2023-03-17T08:11:20;2.50;89.10
72604;DHT22;60645;56.968;24.196;2023-03-17T08:13:47;2.20;87.90
72604;DHT22;60645;56.968;24.196;2023-03-17T08:16:15;2.40;85.50
72604;DHT22;60645;56.968;24.196;2023-03-17T08:18:42;2.40;86.20
72604;DHT22;60645;56.968;24.196;2023-03-17T08:21:09;2.30;86.30
72604;DHT22;60645;56.968;24.196;2023-03-17T08:23:36;2.40;86.40
72604;DHT22;60645;56.968;24.196;2023-03-17T08:26:04;2.20;86.00
72604;DHT22;60645;56.968;24.196;2023-03-17T08:28:31;2.00;86.70
72604;DHT22;60645;56.968;24.196;2023-03-17T08:31:25;1.90;87.20
72604;DHT22;60645;56.968;24.196;2023-03-17T08:33:53;1.80;86.80
72604;DHT22;60645;56.968;24.196;2023-03-17T08:36:22;1.80;86.80
72604;DHT22;60645;56.968;24.196;2023-03-17T08:38:50;1.70;86.30
72604;DHT22;60645;56.968;24.196;2023-03-17T08:41:19;1.80;86.40
72604;DHT22;60645;56.968;24.196;2023-03-17T08:43:47;2.20;85.50
72604;DHT22;60645;56.968;24.196;2023-03-17T08:48:47;2.20;85.10
72604;DHT22;60645;56.968;24.196;2023-03-17T08:51:15;2.50;84.30
72604;DHT22;60645;56.968;24.196;2023-03-17T08:53:46;2.60;84.00
72604;DHT22;60645;56.968;24.196;2023-03-17T08:56:13;2.50;83.70
72604;DHT22;60645;56.968;24.196;2023-03-17T08:58:41;2.40;83.90
72604;DHT22;60645;56.968;24.196;2023-03-17T09:01:11;2.30;83.30
72604;DHT22;60645;56.968;24.196;2023-03-17T09:03:39;2.30;84.20
72604;DHT22;60645;56.968;24.196;2023-03-17T09:06:08;2.00;85.10
72604;DHT22;60645;56.968;24.196;2023-03-17T09:08:41;2.20;85.10
72604;DHT22;60645;56.968;24.196;2023-03-17T09:11:13;2.20;84.00
72604;DHT22;60645;56.968;24.196;2023-03-17T09:13:43;2.00;84.60
72604;DHT22;60645;56.968;24.196;2023-03-17T09:16:13;1.80;84.90
72604;DHT22;60645;56.968;24.196;2023-03-17T09:18:42;1.80;85.60
72604;DHT22;60645;56.968;24.196;2023-03-17T09:21:12;1.70;85.60
72604;DHT22;60645;56.968;24.196;2023-03-17T09:23:40;1.70;86.00
72604;DHT22;60645;56.968;24.196;2023-03-17T09:26:07;1.70;85.90
72604;DHT22;60645;56.968;24.196;2023-03-17T09:28:34;1.90;85.80
72604;DHT22;60645;56.968;24.196;2023-03-17T09:31:04;1.90;85.10
72604;DHT22;60645;56.968;24.196;2023-03-17T09:33:33;1.70;85.70
72604;DHT22;60645;56.968;24.196;2023-03-17T09:36:01;1.80;84.30
72604;DHT22;60645;56.968;24.196;2023-03-17T09:38:28;1.80;85.40
72604;DHT22;60645;56.968;24.196;2023-03-17T09:43:44;2.30;82.00
72604;DHT22;60645;56.968;24.196;2023-03-17T09:49:12;2.20;81.20
72604;DHT22;60645;56.968;24.196;2023-03-17T09:51:42;2.40;81.10
72604;DHT22;60645;56.968;24.196;2023-03-17T09:54:32;2.50;81.40
72604;DHT22;60645;56.968;24.196;2023-03-17T09:57:16;2.40;81.60
72604;DHT22;60645;56.968;24.196;2023-03-17T09:59:56;2.30;82.00
72604;DHT22;60645;56.968;24.196;2023-03-17T10:02:30;2.20;83.10
72604;DHT22;60645;56.968;24.196;2023-03-17T10:05:02;2.40;82.20
72604;DHT22;60645;56.968;24.196;2023-03-17T10:10:41;2.30;82.40
72604;DHT22;60645;56.968;24.196;2023-03-17T10:16:05;2.30;82.30
72604;DHT22;60645;56.968;24.196;2023-03-17T10:21:27;2.60;82.90
72604;DHT22;60645;56.968;24.196;2023-03-17T10:23:59;2.90;81.60
72604;DHT22;60645;56.968;24.196;2023-03-17T10:26:50;2.60;81.40
72604;DHT22;60645;56.968;24.196;2023-03-17T10:29:21;2.70;81.50
72604;DHT22;60645;56.968;24.196;2023-03-17T10:31:52;2.80;81.00
72604;DHT22;60645;56.968;24.196;2023-03-17T10:34:30;2.50;81.80
72604;DHT22;60645;56.968;24.196;2023-03-17T10:39:31;2.40;81.90
72604;DHT22;60645;56.968;24.196;2023-03-17T10:42:10;2.80;81.30
72604;DHT22;60645;56.968;24.196;2023-03-17T10:44:41;2.90;81.50
72604;DHT22;60645;56.968;24.196;2023-03-17T10:47:24;3.00;81.40
72604;DHT22;60645;56.968;24.196;2023-03-17T10:49:51;3.20;80.50
72604;DHT22;60645;56.968;24.196;2023-03-17T10:52:22;3.50;79.30
72604;DHT22;60645;56.968;24.196;2023-03-17T10:54:51;3.50;79.60
72604;DHT22;60645;56.968;24.196;2023-03-17T10:57:18;3.60;79.60
72604;DHT22;60645;56.968;24.196;2023-03-17T10:59:52;3.70;80.20
72604;DHT22;60645;56.968;24.196;2023-03-17T11:02:26;3.40;79.30
72604;DHT22;60645;56.968;24.196;2023-03-17T11:05:06;3.30;79.70
72604;DHT22;60645;56.968;24.196;2023-03-17T11:07:37;3.90;79.30
72604;DHT22;60645;56.968;24.196;2023-03-17T11:12:46;5.00;75.70
72604;DHT22;60645;56.968;24.196;2023-03-17T11:15:15;4.80;76.00
72604;DHT22;60645;56.968;24.196;2023-03-17T11:17:56;4.80;75.30
72604;DHT22;60645;56.968;24.196;2023-03-17T11:20:36;4.90;75.80
72604;DHT22;60645;56.968;24.196;2023-03-17T11:23:16;5.40;74.50
72604;DHT22;60645;56.968;24.196;2023-03-17T11:25:48;5.10;74.60
72604;DHT22;60645;56.968;24.196;2023-03-17T11:28:20;4.90;74.60
72604;DHT22;60645;56.968;24.196;2023-03-17T11:30:54;5.00;74.50
72604;DHT22;60645;56.968;24.196;2023-03-17T11:36:00;4.60;76.20
72604;DHT22;60645;56.968;24.196;2023-03-17T11:38:28;4.90;76.10
72604;DHT22;60645;56.968;24.196;2023-03-17T11:43:43;4.90;75.90
72604;DHT22;60645;56.968;24.196;2023-03-17T11:46:32;5.00;75.30
72604;DHT22;60645;56.968;24.196;2023-03-17T11:54:34;5.10;75.50
72604;DHT22;60645;56.968;24.196;2023-03-17T11:57:04;5.30;75.40
72604;DHT22;60645;56.968;24.196;2023-03-17T11:59:49;5.70;75.50
72604;DHT22;60645;56.968;24.196;2023-03-17T12:04:59;5.60;75.50
72604;DHT22;60645;56.968;24.196;2023-03-17T12:07:29;5.70;74.70
72604;DHT22;60645;56.968;24.196;2023-03-17T12:12:51;6.00;74.70
72604;DHT22;60645;56.968;24.196;2023-03-17T12:15:24;7.70;67.50
72604;DHT22;60645;56.968;24.196;2023-03-17T12:17:56;8.40;65.70
72604;DHT22;60645;56.968;24.196;2023-03-17T12:20:28;9.40;62.90
72604;DHT22;60645;56.968;24.196;2023-03-17T12:26:00;8.20;65.40
72604;DHT22;60645;56.968;24.196;2023-03-17T12:28:41;6.60;70.70
72604;DHT22;60645;56.968;24.196;2023-03-17T12:31:14;7.30;68.50
72604;DHT22;60645;56.968;24.196;2023-03-17T12:36:14;8.50;65.00
72604;DHT22;60645;56.968;24.196;2023-03-17T12:38:44;7.80;68.10
72604;DHT22;60645;56.968;24.196;2023-03-17T12:43:55;6.40;71.60
72604;DHT22;60645;56.968;24.196;2023-03-17T12:49:15;6.60;70.60
72604;DHT22;60645;56.968;24.196;2023-03-17T12:54:34;7.50;68.90
72604;DHT22;60645;56.968;24.196;2023-03-17T12:57:19;7.30;69.40
72604;DHT22;60645;56.968;24.196;2023-03-17T12:59:47;8.10;68.30
72604;DHT22;60645;56.968;24.196;2023-03-17T13:02:17;8.60;64.70
72604;DHT22;60645;56.968;24.196;2023-03-17T13:04:48;9.90;61.80
72604;DHT22;60645;56.968;24.196;2023-03-17T13:07:18;12.00;57.10
72604;DHT22;60645;56.968;24.196;2023-03-17T13:14:59;9.70;61.10
72604;DHT22;60645;56.968;24.196;2023-03-17T13:25:46;12.40;54.90
72604;DHT22;60645;56.968;24.196;2023-03-17T13:27:50;11.80;56.20
72604;DHT22;60645;56.968;24.196;2023-03-17T13:32:56;10.60;58.10
72604;DHT22;60645;56.968;24.196;2023-03-17T13:35:25;10.10;60.00
72604;DHT22;60645;56.968;24.196;2023-03-17T13:50:44;7.50;67.90
72604;DHT22;60645;56.968;24.196;2023-03-17T13:53:13;6.30;71.40
72604;DHT22;60645;56.968;24.196;2023-03-17T13:55:42;6.00;73.70
72604;DHT22;60645;56.968;24.196;2023-03-17T13:58:32;5.90;74.40
72604;DHT22;60645;56.968;24.196;2023-03-17T14:01:03;5.50;75.50
72604;DHT22;60645;56.968;24.196;2023-03-17T14:06:06;5.60;76.30
72604;DHT22;60645;56.968;24.196;2023-03-17T14:08:34;5.40;76.90
72604;DHT22;60645;56.968;24.196;2023-03-17T14:11:03;5.70;76.30
72604;DHT22;60645;56.968;24.196;2023-03-17T14:14:19;5.80;75.90
72604;DHT22;60645;56.968;24.196;2023-03-17T14:16:59;5.50;75.50
72604;DHT22;60645;56.968;24.196;2023-03-17T14:19:28;5.50;76.20
72604;DHT22;60645;56.968;24.196;2023-03-17T14:22:02;5.50;76.00
72604;DHT22;60645;56.968;24.196;2023-03-17T14:24:31;5.40;76.00
72604;DHT22;60645;56.968;24.196;2023-03-17T14:27:03;5.30;76.40
72604;DHT22;60645;56.968;24.196;2023-03-17T14:29:32;5.50;76.20
72604;DHT22;60645;56.968;24.196;2023-03-17T14:32:12;5.40;76.50
72604;DHT22;60645;56.968;24.196;2023-03-17T14:35:10;5.40;77.00
72604;DHT22;60645;56.968;24.196;2023-03-17T14:37:38;5.30;76.80
72604;DHT22;60645;56.968;24.196;2023-03-17T14:40:26;5.40;76.60
72604;DHT22;60645;56.968;24.196;2023-03-17T14:42:53;5.50;76.80
72604;DHT22;60645;56.968;24.196;2023-03-17T14:47:54;5.30;77.10
72604;DHT22;60645;56.968;24.196;2023-03-17T14:52:49;5.30;77.30
72604;DHT22;60645;56.968;24.196;2023-03-17T14:55:16;5.30;77.60
72604;DHT22;60645;56.968;24.196;2023-03-17T14:57:51;5.10;77.50
72604;DHT22;60645;56.968;24.196;2023-03-17T15:00:36;5.30;77.20
72604;DHT22;60645;56.968;24.196;2023-03-17T15:03:14;5.50;77.00
72604;DHT22;60645;56.968;24.196;2023-03-17T15:05:43;5.40;76.60
72604;DHT22;60645;56.968;24.196;2023-03-17T15:10:57;5.30;76.30
72604;DHT22;60645;56.968;24.196;2023-03-17T15:13:25;5.30;76.10
72604;DHT22;60645;56.968;24.196;2023-03-17T15:15:52;5.30;75.60
72604;DHT22;60645;56.968;24.196;2023-03-17T15:18:19;5.40;75.30
72604;DHT22;60645;56.968;24.196;2023-03-17T15:20:46;5.40;75.40
72604;DHT22;60645;56.968;24.196;2023-03-17T15:23:20;5.40;75.40
72604;DHT22;60645;56.968;24.196;2023-03-17T15:25:53;5.30;74.70
72604;DHT22;60645;56.968;24.196;2023-03-17T15:28:27;5.40;75.00
72604;DHT22;60645;56.968;24.196;2023-03-17T15:30:55;5.30;75.20
72604;DHT22;60645;56.968;24.196;2023-03-17T15:35:51;5.30;74.90
72604;DHT22;60645;56.968;24.196;2023-03-17T15:38:18;5.20;75.00
72604;DHT22;60645;56.968;24.196;2023-03-17T15:40:47;5.10;74.60
72604;DHT22;60645;56.968;24.196;2023-03-17T15:43:14;4.90;74.90
72604;DHT22;60645;56.968;24.196;2023-03-17T15:45:42;5.10;75.00
72604;DHT22;60645;56.968;24.196;2023-03-17T15:48:19;5.20;75.20
72604;DHT22;60645;56.968;24.196;2023-03-17T15:50:49;5.00;75.50
72604;DHT22;60645;56.968;24.196;2023-03-17T15:53:17;5.00;75.50
72604;DHT22;60645;56.968;24.196;2023-03-17T15:55:44;5.10;75.70
72604;DHT22;60645;56.968;24.196;2023-03-17T15:58:10;5.10;76.00
72604;DHT22;60645;56.968;24.196;2023-03-17T16:00:37;5.10;76.00
72604;DHT22;60645;56.968;24.196;2023-03-17T16:03:13;5.20;76.20
72604;DHT22;60645;56.968;24.196;2023-03-17T16:05:42;5.00;76.70
72604;DHT22;60645;56.968;24.196;2023-03-17T16:08:11;4.90;76.00
72604;DHT22;60645;56.968;24.196;2023-03-17T16:10:38;4.90;74.40
72604;DHT22;60645;56.968;24.196;2023-03-17T16:13:06;4.80;74.60
72604;DHT22;60645;56.968;24.196;2023-03-17T16:15:35;4.90;74.30
72604;DHT22;60645;56.968;24.196;2023-03-17T16:18:03;4.80;74.10
72604;DHT22;60645;56.968;24.196;2023-03-17T16:20:41;4.80;73.80
72604;DHT22;60645;56.968;24.196;2023-03-17T16:23:11;4.80;73.60
72604;DHT22;60645;56.968;24.196;2023-03-17T16:25:39;4.60;73.70
72604;DHT22;60645;56.968;24.196;2023-03-17T16:28:21;4.70;73.20
72604;DHT22;60645;56.968;24.196;2023-03-17T16:30:48;4.90;73.20
72604;DHT22;60645;56.968;24.196;2023-03-17T16:33:26;4.60;73.10
72604;DHT22;60645;56.968;24.196;2023-03-17T16:35:53;4.40;72.60
72604;DHT22;60645;56.968;24.196;2023-03-17T16:38:23;4.80;72.60
72604;DHT22;60645;56.968;24.196;2023-03-17T16:40:52;4.60;72.90
72604;DHT22;60645;56.968;24.196;2023-03-17T16:43:27;4.30;73.10
72604;DHT22;60645;56.968;24.196;2023-03-17T16:45:55;4.30;74.00
72604;DHT22;60645;56.968;24.196;2023-03-17T16:48:23;4.30;74.10
72604;DHT22;60645;56.968;24.196;2023-03-17T16:50:50;4.20;74.40
72604;DHT22;60645;56.968;24.196;2023-03-17T16:53:17;4.20;74.30
72604;DHT22;60645;56.968;24.196;2023-03-17T16:55:44;4.30;74.20
72604;DHT22;60645;56.968;24.196;2023-03-17T16:58:26;4.40;74.10
72604;DHT22;60645;56.968;24.196;2023-03-17T17:00:58;4.10;73.50
72604;DHT22;60645;56.968;24.196;2023-03-17T17:03:26;4.00;73.50
72604;DHT22;60645;56.968;24.196;2023-03-17T17:05:53;4.20;73.50
72604;DHT22;60645;56.968;24.196;2023-03-17T17:08:20;4.10;73.50
72604;DHT22;60645;56.968;24.196;2023-03-17T17:10:48;4.10;73.50
72604;DHT22;60645;56.968;24.196;2023-03-17T17:13:15;4.00;73.90
72604;DHT22;60645;56.968;24.196;2023-03-17T17:15:42;3.90;74.20
72604;DHT22;60645;56.968;24.196;2023-03-17T17:18:13;4.00;74.60
72604;DHT22;60645;56.968;24.196;2023-03-17T17:20:41;3.80;74.80
72604;DHT22;60645;56.968;24.196;2023-03-17T17:23:10;3.70;75.50
72604;DHT22;60645;56.968;24.196;2023-03-17T17:25:37;3.80;75.30
72604;DHT22;60645;56.968;24.196;2023-03-17T17:28:04;3.90;75.20
72604;DHT22;60645;56.968;24.196;2023-03-17T17:30:32;3.70;74.80
72604;DHT22;60645;56.968;24.196;2023-03-17T17:33:00;3.60;75.00
72604;DHT22;60645;56.968;24.196;2023-03-17T17:35:29;3.60;74.50
72604;DHT22;60645;56.968;24.196;2023-03-17T17:37:59;3.70;74.50
72604;DHT22;60645;56.968;24.196;2023-03-17T17:40:26;3.60;74.70
72604;DHT22;60645;56.968;24.196;2023-03-17T17:42:54;3.90;74.10
72604;DHT22;60645;56.968;24.196;2023-03-17T17:45:21;3.70;74.10
72604;DHT22;60645;56.968;24.196;2023-03-17T17:47:49;3.80;73.80
72604;DHT22;60645;56.968;24.196;2023-03-17T17:50:25;3.80;73.60
72604;DHT22;60645;56.968;24.196;2023-03-17T17:52:52;3.80;73.70
72604;DHT22;60645;56.968;24.196;2023-03-17T17:55:20;3.80;73.20
72604;DHT22;60645;56.968;24.196;2023-03-17T17:57:47;3.90;73.70
72604;DHT22;60645;56.968;24.196;2023-03-17T18:00:17;3.80;73.50
72604;DHT22;60645;56.968;24.196;2023-03-17T18:02:44;3.80;73.20
72604;DHT22;60645;56.968;24.196;2023-03-17T18:05:12;3.80;73.30
72604;DHT22;60645;56.968;24.196;2023-03-17T18:07:39;3.90;72.70
72604;DHT22;60645;56.968;24.196;2023-03-17T18:10:06;3.80;72.50
72604;DHT22;60645;56.968;24.196;2023-03-17T18:12:34;4.00;72.70
72604;DHT22;60645;56.968;24.196;2023-03-17T18:15:01;4.00;72.50
72604;DHT22;60645;56.968;24.196;2023-03-17T18:17:28;3.90;72.00
72604;DHT22;60645;56.968;24.196;2023-03-17T18:19:58;3.80;72.80
72604;DHT22;60645;56.968;24.196;2023-03-17T18:22:25;4.00;73.00
72604;DHT22;60645;56.968;24.196;2023-03-17T18:24:52;4.00;72.50
72604;DHT22;60645;56.968;24.196;2023-03-17T18:27:19;4.10;72.40
72604;DHT22;60645;56.968;24.196;2023-03-17T18:29:47;3.90;72.60
72604;DHT22;60645;56.968;24.196;2023-03-17T18:32:14;3.90;72.40
72604;DHT22;60645;56.968;24.196;2023-03-17T18:34:45;4.00;72.30
72604;DHT22;60645;56.968;24.196;2023-03-17T18:37:16;4.10;72.30
72604;DHT22;60645;56.968;24.196;2023-03-17T18:39:44;3.80;71.80
72604;DHT22;60645;56.968;24.196;2023-03-17T18:42:24;4.00;71.70
72604;DHT22;60645;56.968;24.196;2023-03-17T18:44:51;3.90;71.70
72604;DHT22;60645;56.968;24.196;2023-03-17T18:47:18;3.80;71.50
72604;DHT22;60645;56.968;24.196;2023-03-17T18:49:45;4.10;71.60
72604;DHT22;60645;56.968;24.196;2023-03-17T18:52:12;4.10;71.50
72604;DHT22;60645;56.968;24.196;2023-03-17T18:54:39;3.90;71.10
72604;DHT22;60645;56.968;24.196;2023-03-17T18:57:06;4.00;71.10
72604;DHT22;60645;56.968;24.196;2023-03-17T18:59:34;4.00;70.70
72604;DHT22;60645;56.968;24.196;2023-03-17T19:02:01;4.00;70.90
72604;DHT22;60645;56.968;24.196;2023-03-17T19:04:28;3.90;70.90
72604;DHT22;60645;56.968;24.196;2023-03-17T19:06:55;4.00;70.80
72604;DHT22;60645;56.968;24.196;2023-03-17T19:09:22;4.00;70.80
72604;DHT22;60645;56.968;24.196;2023-03-17T19:11:49;3.90;70.90
72604;DHT22;60645;56.968;24.196;2023-03-17T19:14:16;3.80;70.60
72604;DHT22;60645;56.968;24.196;2023-03-17T19:16:44;3.80;70.50
72604;DHT22;60645;56.968;24.196;2023-03-17T19:19:11;3.90;70.20
72604;DHT22;60645;56.968;24.196;2023-03-17T19:21:38;3.80;69.70
72604;DHT22;60645;56.968;24.196;2023-03-17T19:24:05;4.00;69.90
72604;DHT22;60645;56.968;24.196;2023-03-17T19:26:32;3.90;70.00
72604;DHT22;60645;56.968;24.196;2023-03-17T19:28:59;3.90;69.70
72604;DHT22;60645;56.968;24.196;2023-03-17T19:31:26;3.90;70.40
72604;DHT22;60645;56.968;24.196;2023-03-17T19:33:54;3.70;70.00
72604;DHT22;60645;56.968;24.196;2023-03-17T19:36:21;3.80;70.00
72604;DHT22;60645;56.968;24.196;2023-03-17T19:38:49;3.90;69.40
72604;DHT22;60645;56.968;24.196;2023-03-17T19:41:16;3.90;69.40
72604;DHT22;60645;56.968;24.196;2023-03-17T19:43:43;3.90;69.40
72604;DHT22;60645;56.968;24.196;2023-03-17T19:46:10;3.90;69.10
72604;DHT22;60645;56.968;24.196;2023-03-17T19:48:38;3.70;69.50
72604;DHT22;60645;56.968;24.196;2023-03-17T19:51:05;3.90;69.30